TimeEDT,TemperatureF,Dew PointF,Humidity,Sea Level PressureIn,VisibilityMPH,Wind Direction,Wind SpeedMPH,Gust SpeedMPH,PrecipitationIn,Events,Conditions,WindDirDegrees,DateUTC
12:53 AM,37.9,28.0,68,29.83,10.0,WNW,13.8,24.2,N/A,,Overcast,300,2012-10-23 04:53:00
1:53 AM,37.4,28.4,70,29.84,10.0,NW,16.1,24.2,N/A,,Overcast,310,2012-10-23 05:53:00
2:53 AM,36.0,28.0,73,29.86,10.0,WNW,12.7,20.7,N/A,,Overcast,300,2012-10-23 06:53:00
3:53 AM,36.0,28.0,73,29.87,10.0,NW,10.4,-,N/A,,Overcast,310,2012-10-23 07:53:00
4:53 AM,36.0,28.0,73,29.88,10.0,NW,11.5,25.3,N/A,,Overcast,310,2012-10-23 08:53:00
5:53 AM,37.0,28.0,70,29.90,10.0,NW,11.5,-,N/A,,Overcast,310,2012-10-23 09:53:00
6:53 AM,36.0,27.0,70,29.92,10.0,NW,15.0,23.0,N/A,,Overcast,310,2012-10-23 10:53:00
7:53 AM,36.0,28.0,73,29.95,10.0,NW,15.0,25.3,N/A,,Overcast,310,2012-10-23 11:53:00
8:53 AM,37.0,28.0,70,29.96,10.0,NW,15.0,-,N/A,,Overcast,310,2012-10-23 12:53:00
9:53 AM,37.9,28.0,68,29.97,10.0,WNW,18.4,28.8,N/A,,Overcast,300,2012-10-23 13:53:00
10:53 AM,42.1,28.0,58,29.96,10.0,NW,13.8,23.0,N/A,,Mostly Cloudy,320,2012-10-23 14:53:00
11:25 AM,42.8,28.4,57,29.95,10.0,NNW,18.4,27.6,N/A,,Mostly Cloudy,330,2012-10-23 15:25:00
11:53 AM,42.1,28.0,58,29.96,10.0,NW,20.7,28.8,N/A,,Mostly Cloudy,310,2012-10-23 15:53:00
12:53 PM,44.6,28.4,53,29.93,10.0,NNW,18.4,23.0,N/A,,Partly Cloudy,330,2012-10-23 16:53:00
1:53 PM,45.0,28.0,52,29.94,10.0,NW,13.8,28.8,N/A,,Scattered Clouds,310,2012-10-23 17:53:00
2:53 PM,45.0,28.0,52,29.94,10.0,NW,24.2,32.2,N/A,,Clear,320,2012-10-23 18:53:00
3:53 PM,42.8,26.6,53,29.93,10.0,NNW,21.9,33.4,N/A,,Clear,330,2012-10-23 19:53:00
4:53 PM,41.0,27.0,57,29.99,10.0,NW,19.6,25.3,N/A,,Clear,320,2012-10-23 20:53:00
5:53 PM,39.0,28.0,65,30.01,10.0,NW,16.1,24.2,N/A,,Mostly Cloudy,320,2012-10-23 21:53:00
6:53 PM,37.0,27.0,67,30.04,10.0,NW,11.5,-,N/A,,Clear,310,2012-10-23 22:53:00
7:53 PM,37.0,27.0,67,30.04,10.0,WNW,13.8,24.2,N/A,,Clear,300,2012-10-23 23:53:00
8:53 PM,36.0,27.0,70,30.06,10.0,NW,12.7,19.6,N/A,,Clear,310,2012-10-24 00:53:00
9:53 PM,33.1,27.0,78,30.06,10.0,NNW,4.6,-,N/A,,Clear,330,2012-10-24 01:53:00
10:53 PM,33.1,27.0,78,30.06,10.0,NW,6.9,-,N/A,,Clear,320,2012-10-24 02:53:00
11:53 PM,34.0,26.1,73,30.06,10.0,NW,15.0,-,N/A,,Clear,320,2012-10-24 03:53:00